Forestville, California
Current Conditions -  °F | °C
As of 1:17 PM on Thursday 20 Nov 2014 (Local Time) from KSTS Reporting Station
Overcast Overcast  
Wind Chill: 55°   Ceiling: 2100
Heat Index: 55°   Visibility: 10mi
Dew Point: 54°   Wind: 6mph
Humidity: 94%   Direction: 130°SE
Pressure: 29.98"   Gusts: NA
Location:  38.47°N, 122.89°W
Report Text: KSTS 202117Z 13005KT 10SM FEW009 BKN021 OVC049 13/12 A2998 RMK AO2 RAE2058 P0000
Loading
Personal Weather Stations






























Interactive Weather Map New forecast layout! Learn more

10-Day Weather Forecast

Advertisements
Track Severe Weather on mobile